Bezoek ook deze websites:

Mijn andere website

Weerstation Noordbergum

Weerstation in Leuven


U vindt ons ook hier:

Weather Underground


METAR rapporten vliegvelden

   
EHGG - Groningen/Eelde, Netherlands
Afstand tot: ONO 18 km
Gewijzigd: 15-09-2019 21:55
Gedeeltelijk bewolkt  
Gedeeltelijk bewolkt  
   Wind: WZW 7.4 km/h
Wind: WZW 7.4 km/h
Temperatuur: 13°C
Dauwpunt: 10°C
Vochtigheid: 82%
Barometer: 1021 hPa
Bewolking: Gedeeltelijk bewolkt
Zicht: meer dan 10 km
Bewolking: Gedeeltelijk bewolkt
EHGG 151955Z AUTO 25004KT 9999 NSC 13/10 Q1021
EHLW - Leeuwarden Rnlaf, Netherlands
Afstand tot: WNW 45 km
Gewijzigd: 15-09-2019 21:55
Bewolking  
Bewolking  
   Wind: WZW 5.6 km/h
Wind: WZW 5.6 km/h
Temperatuur: 13°C
Dauwpunt: 12°C
Vochtigheid: 94%
Barometer: 1021 hPa
Bewolking: Bewolking
Zicht: meer dan 10 km
Bewolking: Bewolking 5900 ft
EHLW 151955Z AUTO 25003KT 9999 OVC059 13/12 Q1021 BLU
EHVL - Vlieland Island, Netherlands
Afstand tot: WNW 98 km
Gewijzigd: 15-09-2019 21:55
Bewolking  
Bewolking  
   Wind: NW 16.7 km/h
Wind: NW 16.7 km/h
Temperatuur: 16°C
Dauwpunt: 10°C
Vochtigheid: 68%
Barometer: 1021 hPa
Bewolking: Bewolking
Zicht: meer dan 10 km
Bewolking: Bewolking 4300 ft
EHVL 151955Z AUTO 32009KT 9999 OVC043 16/10 Q1021 BLU
EHKD - De Kooy (navy), Netherlands
Afstand tot: W 106 km
Gewijzigd: 15-09-2019 21:55
Bewolking  
Bewolking  
   Wind: WNW 5.6 km/h
Wind: WNW 5.6 km/h
Temperatuur: 16°C
Dauwpunt: 12°C
Vochtigheid: 77%
Barometer: 1021 hPa
Bewolking: Bewolking
Zicht: meer dan 10 km
Bewolking: Bewolking 2000 ft
EHKD 151955Z AUTO 29003KT 250V320 9999 OVC020 16/12 Q1021 WHT
EHDL - Deelen Rnlafb, Netherlands
Afstand tot: ZZW 112 km
Gewijzigd: 15-09-2019 21:55
Bewolking  
Bewolking  
   Wind: varieert 3.7 km/h
Wind: varieert 3.7 km/h
Temperatuur: 16°C
Dauwpunt: 14°C
Vochtigheid: 88%
Barometer: 1022 hPa
Bewolking: Bewolking
Zicht: meer dan 10 km
Bewolking: Bewolking 18000 ft
EHDL 151955Z AUTO VRB02KT 9999 OVC180 16/14 Q1022 BLU
EHAM - Amsterdam/Schiph, Netherlands
Afstand tot: ZW 132 km
Gewijzigd: 15-09-2019 21:55
Licht bewolkt  
Licht bewolkt  
   Wind: NW 5.6 km/h
Wind: NW 5.6 km/h
Temperatuur: 16°C
Dauwpunt: 14°C
Vochtigheid: 88%
Barometer: 1022 hPa
Bewolking: Licht bewolkt
Zicht: meer dan 10 km
Bewolking: Licht bewolkt 4200 ft
EHAM 151955Z 31003KT 9999 FEW042 16/14 Q1022 NOSIG

Script ontwikkeld door  Saratoga-weather.org Aangepast voor de template door  Weerstation Leuven

Apparatuur in gebruik:

Weerstation
Davis VP2

Weerprogramma
Meteobridge

Weercomputer
TP-link TL-MR3020

Webleverancier
Versio

Davis VP2

Meteobridge

TP-link TL-MR3020

Versio